createdAt,value
2019-03-13T00:00:45.015Z,1.85
2019-03-13T00:02:31.113Z,1.88
2019-03-13T00:04:07.152Z,1.90
2019-03-13T00:05:45.573Z,1.90
2019-03-13T00:07:25.288Z,1.91
2019-03-13T00:09:01.900Z,1.91
2019-03-13T00:10:37.228Z,1.92
2019-03-13T00:12:15.097Z,1.93
2019-03-13T00:13:53.633Z,1.93
2019-03-13T00:15:29.259Z,1.97
2019-03-13T00:17:04.820Z,1.97
2019-03-13T00:18:41.684Z,1.98
2019-03-13T00:20:18.330Z,1.97
2019-03-13T00:21:53.445Z,1.95
2019-03-13T00:23:30.512Z,1.93
2019-03-13T00:25:05.769Z,1.94
2019-03-13T00:26:42.720Z,1.93
2019-03-13T00:28:17.905Z,1.94
2019-03-13T00:29:53.641Z,1.94
2019-03-13T00:31:32.562Z,1.93
2019-03-13T00:33:07.772Z,1.95
2019-03-13T00:34:43.127Z,1.98
2019-03-13T00:36:20.589Z,1.99
2019-03-13T00:37:56.757Z,2.01
2019-03-13T00:39:33.063Z,1.98
2019-03-13T00:41:09.235Z,1.98
2019-03-13T00:42:44.879Z,1.99
2019-03-13T00:44:21.686Z,1.99
2019-03-13T00:46:00.000Z,1.92
2019-03-13T00:47:36.046Z,1.95
2019-03-13T00:49:17.296Z,1.95
2019-03-13T00:50:54.874Z,1.95
2019-03-13T00:52:34.636Z,1.94
2019-03-13T00:54:14.465Z,1.93
2019-03-13T00:55:51.075Z,1.94
2019-03-13T00:57:28.933Z,1.95
2019-03-13T00:59:04.455Z,1.93
2019-03-13T01:00:54.271Z,1.89
2019-03-13T01:02:36.313Z,1.91
2019-03-13T01:04:19.975Z,1.87
2019-03-13T01:06:00.843Z,1.87
2019-03-13T01:07:39.373Z,1.89
2019-03-13T01:09:22.787Z,1.86
2019-03-13T01:11:02.317Z,1.87
2019-03-13T01:12:44.834Z,1.86
2019-03-13T01:14:27.674Z,1.84
2019-03-13T01:16:04.478Z,1.85
2019-03-13T01:17:44.236Z,1.82
2019-03-13T01:19:21.436Z,1.82
2019-03-13T01:20:57.015Z,1.78
2019-03-13T01:22:32.526Z,1.80
2019-03-13T01:24:08.094Z,1.82
2019-03-13T01:25:43.573Z,1.79
2019-03-13T01:27:19.615Z,1.78
2019-03-13T01:28:55.602Z,1.80
2019-03-13T01:30:35.305Z,1.80
2019-03-13T01:32:36.437Z,1.76
2019-03-13T01:34:39.980Z,1.80
2019-03-13T01:36:16.031Z,1.82
2019-03-13T01:37:51.819Z,1.84
2019-03-13T01:39:31.944Z,1.79
2019-03-13T01:41:08.281Z,1.81
2019-03-13T01:42:43.810Z,1.80
2019-03-13T01:44:19.260Z,1.82
2019-03-13T01:45:54.881Z,1.82
2019-03-13T01:47:30.395Z,1.84
2019-03-13T01:49:06.985Z,1.85
2019-03-13T01:50:42.635Z,1.86
2019-03-13T01:52:17.982Z,1.88
2019-03-13T01:53:53.497Z,1.88
2019-03-13T01:55:29.416Z,1.89
2019-03-13T01:57:04.612Z,1.89
2019-03-13T01:58:39.888Z,1.92
2019-03-13T02:00:23.308Z,1.90
2019-03-13T02:01:58.521Z,1.93
2019-03-13T02:03:35.349Z,1.91
2019-03-13T02:05:14.270Z,1.93
2019-03-13T02:06:54.281Z,1.97
2019-03-13T02:08:31.790Z,1.96
2019-03-13T02:10:10.041Z,1.98
2019-03-13T02:11:48.306Z,2.00
2019-03-13T02:13:24.961Z,1.99
2019-03-13T02:15:00.744Z,2.00
2019-03-13T02:16:40.521Z,2.03
2019-03-13T02:18:16.189Z,2.02
2019-03-13T02:20:00.017Z,2.05
2019-03-13T02:21:39.494Z,2.06
2019-03-13T02:23:16.297Z,2.09
2019-03-13T02:24:56.769Z,2.10
2019-03-13T02:26:39.229Z,2.10
2019-03-13T02:28:14.969Z,2.12
2019-03-13T02:29:50.145Z,2.10
2019-03-13T02:31:27.233Z,2.11
2019-03-13T02:33:07.480Z,2.13
2019-03-13T02:34:42.719Z,2.13
2019-03-13T02:36:18.997Z,2.10
2019-03-13T02:37:57.305Z,2.12
2019-03-13T02:39:32.634Z,2.15
2019-03-13T02:41:14.298Z,2.09
2019-03-13T02:42:48.772Z,2.10
2019-03-13T02:44:23.861Z,2.08
2019-03-13T02:46:01.778Z,2.07
2019-03-13T02:47:39.736Z,2.09
2019-03-13T02:49:15.321Z,2.11
2019-03-13T02:50:54.050Z,2.15
2019-03-13T02:52:33.188Z,2.14
2019-03-13T02:54:20.124Z,2.14
2019-03-13T02:55:55.615Z,2.20
2019-03-13T02:57:32.441Z,2.14
2019-03-13T02:59:14.002Z,2.14
2019-03-13T03:01:13.335Z,2.12
2019-03-13T03:02:59.722Z,2.13
2019-03-13T03:04:56.927Z,2.15
2019-03-13T03:06:34.652Z,2.15
2019-03-13T03:08:09.909Z,2.15
2019-03-13T03:09:45.853Z,2.17
2019-03-13T03:11:21.349Z,2.20
2019-03-13T03:12:58.028Z,2.21
2019-03-13T03:14:33.262Z,2.19
2019-03-13T03:16:08.869Z,2.22
2019-03-13T03:17:45.262Z,2.21
2019-03-13T03:19:20.495Z,2.23
2019-03-13T03:20:58.910Z,2.22
2019-03-13T03:22:34.528Z,2.25
2019-03-13T03:24:10.239Z,2.24
2019-03-13T03:25:46.216Z,2.23
2019-03-13T03:27:21.430Z,2.23
2019-03-13T03:28:56.681Z,2.28
2019-03-13T03:30:32.114Z,2.25
2019-03-13T03:32:07.335Z,2.26
2019-03-13T03:33:43.192Z,2.24
2019-03-13T03:35:18.327Z,2.26
2019-03-13T03:36:57.084Z,2.25
2019-03-13T03:38:32.892Z,2.29
2019-03-13T03:40:10.274Z,2.25
2019-03-13T03:41:45.828Z,2.26
2019-03-13T03:43:20.932Z,2.26
2019-03-13T03:44:58.604Z,2.27
2019-03-13T03:46:33.818Z,2.26
2019-03-13T03:48:09.108Z,2.29
2019-03-13T03:49:47.427Z,2.25
2019-03-13T03:51:22.939Z,2.25
2019-03-13T03:52:58.167Z,2.30
2019-03-13T03:54:33.351Z,2.32
2019-03-13T03:56:14.734Z,2.33
2019-03-13T03:57:51.118Z,2.29
2019-03-13T03:59:26.398Z,2.29
2019-03-13T04:01:01.842Z,2.29
2019-03-13T04:02:37.394Z,2.29
2019-03-13T04:04:14.279Z,2.29
2019-03-13T04:05:49.472Z,2.27
2019-03-13T04:07:26.824Z,2.26
2019-03-13T04:09:01.901Z,2.26
2019-03-13T04:10:37.699Z,2.26
2019-03-13T04:12:13.142Z,2.26
2019-03-13T04:13:48.255Z,2.24
2019-03-13T04:15:23.813Z,2.26
2019-03-13T04:16:58.892Z,2.33
2019-03-13T04:18:35.038Z,2.28
2019-03-13T04:20:10.445Z,2.25
2019-03-13T04:21:46.067Z,2.24
2019-03-13T04:23:23.571Z,2.22
2019-03-13T04:25:13.881Z,2.24
2019-03-13T04:26:49.520Z,2.25
2019-03-13T04:28:25.061Z,2.27
2019-03-13T04:30:00.547Z,2.24
2019-03-13T04:31:35.783Z,2.23
2019-03-13T04:33:11.440Z,2.22
2019-03-13T04:34:46.553Z,2.25
2019-03-13T04:36:22.251Z,2.24
2019-03-13T04:37:58.406Z,2.26
2019-03-13T04:39:35.197Z,2.21
2019-03-13T04:41:11.529Z,2.23
2019-03-13T04:42:51.180Z,2.24
2019-03-13T04:44:26.616Z,2.26
2019-03-13T04:46:02.869Z,2.27
2019-03-13T04:47:38.411Z,2.26
2019-03-13T04:49:13.713Z,2.28
2019-03-13T04:50:49.128Z,2.28
2019-03-13T04:52:24.546Z,2.30
2019-03-13T04:54:01.289Z,2.34
2019-03-13T04:55:37.079Z,2.32
2019-03-13T04:57:12.134Z,2.33
2019-03-13T04:58:56.870Z,2.34
2019-03-13T05:00:32.946Z,2.33
2019-03-13T05:02:08.359Z,2.34
2019-03-13T05:03:43.821Z,2.34
2019-03-13T05:06:09.643Z,2.36
2019-03-13T05:07:44.849Z,2.39
2019-03-13T05:09:23.220Z,2.39
2019-03-13T05:10:59.695Z,2.39
2019-03-13T05:12:35.445Z,2.40
2019-03-13T05:14:10.598Z,2.40
2019-03-13T05:15:45.715Z,2.41
2019-03-13T05:17:21.963Z,2.42
2019-03-13T05:18:57.988Z,2.45
2019-03-13T05:20:35.240Z,2.43
2019-03-13T05:22:11.641Z,2.46
2019-03-13T05:23:55.321Z,2.44
2019-03-13T05:25:39.087Z,2.44
2019-03-13T05:27:25.192Z,2.48
2019-03-13T05:29:12.513Z,2.43
2019-03-13T05:30:53.265Z,2.45
2019-03-13T05:32:32.304Z,2.43
2019-03-13T05:34:09.045Z,2.47
2019-03-13T05:35:44.799Z,2.46
2019-03-13T05:37:21.340Z,2.43
2019-03-13T05:38:58.762Z,2.42
2019-03-13T05:40:34.182Z,2.43
2019-03-13T05:42:09.564Z,2.45
2019-03-13T05:43:44.657Z,2.46
2019-03-13T05:45:24.678Z,2.43
2019-03-13T05:46:59.945Z,2.47
2019-03-13T05:48:38.855Z,2.45
2019-03-13T05:50:14.557Z,2.45
2019-03-13T05:51:52.530Z,2.45
2019-03-13T05:53:33.687Z,2.44
2019-03-13T05:55:10.004Z,2.45
2019-03-13T05:56:46.528Z,2.43
2019-03-13T05:58:31.991Z,2.43
2019-03-13T06:00:09.455Z,2.40
2019-03-13T06:01:47.635Z,2.42
2019-03-13T06:03:27.841Z,2.40
2019-03-13T06:05:05.503Z,2.43
2019-03-13T06:06:42.408Z,2.41
2019-03-13T06:08:19.218Z,2.49
2019-03-13T06:09:54.952Z,2.49
2019-03-13T06:11:30.261Z,2.43
2019-03-13T06:13:07.569Z,2.43
2019-03-13T06:14:42.816Z,2.42
2019-03-13T06:16:18.303Z,2.43
2019-03-13T06:17:58.379Z,2.43
2019-03-13T06:19:36.922Z,2.45
2019-03-13T06:21:15.091Z,2.48
2019-03-13T06:22:52.001Z,2.49
2019-03-13T06:24:31.731Z,2.51
2019-03-13T06:26:16.664Z,2.47
2019-03-13T06:28:26.227Z,2.47
2019-03-13T06:30:09.420Z,2.46
2019-03-13T06:31:50.986Z,2.51
2019-03-13T06:33:35.515Z,2.51
2019-03-13T06:35:14.508Z,2.53
2019-03-13T06:36:51.192Z,2.56
2019-03-13T06:38:28.511Z,2.52
2019-03-13T06:40:11.543Z,2.54
2019-03-13T06:41:48.905Z,2.55
2019-03-13T06:43:24.087Z,2.58
2019-03-13T06:45:03.143Z,2.60
2019-03-13T06:46:40.856Z,2.57
2019-03-13T06:48:17.190Z,2.59
2019-03-13T06:49:53.320Z,2.58
2019-03-13T06:51:28.670Z,2.57
2019-03-13T06:53:03.806Z,2.57
2019-03-13T06:54:38.965Z,2.59
2019-03-13T06:56:15.120Z,2.58
2019-03-13T06:57:50.333Z,2.63
2019-03-13T06:59:39.392Z,2.64
2019-03-13T07:01:29.789Z,2.63
2019-03-13T07:03:17.811Z,2.67
2019-03-13T07:05:27.013Z,2.68
2019-03-13T07:07:09.069Z,2.70
2019-03-13T07:08:53.791Z,2.68
2019-03-13T07:10:50.442Z,2.68
2019-03-13T07:12:36.092Z,2.74
2019-03-13T07:14:23.342Z,2.77
2019-03-13T07:16:17.296Z,2.76
2019-03-13T07:18:14.575Z,2.83
2019-03-13T07:20:15.553Z,2.83
2019-03-13T07:22:18.300Z,2.75
2019-03-13T07:24:06.365Z,2.65
2019-03-13T07:25:54.322Z,2.53
2019-03-13T07:27:48.943Z,2.46
2019-03-13T07:29:35.805Z,2.37
2019-03-13T07:31:32.850Z,2.31
2019-03-13T07:33:29.138Z,2.32
2019-03-13T07:35:23.947Z,2.35
2019-03-13T07:37:25.479Z,2.32
2019-03-13T07:39:37.940Z,2.34
2019-03-13T07:41:50.452Z,2.34
2019-03-13T07:43:59.510Z,2.29
2019-03-13T07:46:08.325Z,2.29
2019-03-13T07:48:10.832Z,2.27
2019-03-13T07:50:04.780Z,2.21
2019-03-13T07:51:57.317Z,2.13
2019-03-13T07:53:54.158Z,2.13
2019-03-13T07:55:38.823Z,2.07
2019-03-13T07:57:26.084Z,2.02
2019-03-13T07:59:29.142Z,2.02
2019-03-13T08:01:24.775Z,2.01
2019-03-13T08:03:11.358Z,2.06
2019-03-13T08:05:12.852Z,2.05
2019-03-13T08:07:13.810Z,2.03
2019-03-13T08:09:09.252Z,2.03
2019-03-13T08:11:11.710Z,2.06
2019-03-13T08:13:14.569Z,2.12
2019-03-13T08:15:17.727Z,2.18
2019-03-13T08:17:23.493Z,2.18
2019-03-13T08:19:25.427Z,2.23
2019-03-13T08:21:27.814Z,2.21
2019-03-13T08:23:20.066Z,2.24
2019-03-13T08:25:17.218Z,2.21
2019-03-13T08:27:13.803Z,2.21
2019-03-13T08:28:54.520Z,2.23
2019-03-13T08:30:57.320Z,2.21
2019-03-13T08:32:52.985Z,2.22
2019-03-13T08:34:52.971Z,2.28
2019-03-13T08:37:00.760Z,2.33
2019-03-13T08:38:57.983Z,2.30
2019-03-13T08:40:39.033Z,2.35
2019-03-13T08:42:37.033Z,2.32
2019-03-13T08:44:25.299Z,2.27
2019-03-13T08:46:25.346Z,2.27
2019-03-13T08:48:19.661Z,2.22
2019-03-13T08:50:13.455Z,2.18
2019-03-13T08:52:14.469Z,2.07
2019-03-13T08:53:58.577Z,2.04
2019-03-13T08:56:02.237Z,1.96
2019-03-13T08:58:00.793Z,1.92
2019-03-13T08:59:52.184Z,1.94
2019-03-13T09:01:44.340Z,1.94
2019-03-13T09:03:32.576Z,1.84
2019-03-13T09:05:26.673Z,1.93
2019-03-13T09:07:16.878Z,1.84
2019-03-13T09:09:30.818Z,1.74
2019-03-13T09:11:39.954Z,1.72
2019-03-13T09:13:22.062Z,1.67
2019-03-13T09:15:07.831Z,1.66
2019-03-13T09:16:53.279Z,1.69
2019-03-13T09:18:45.686Z,1.73
2019-03-13T09:20:41.106Z,1.73
2019-03-13T09:22:29.254Z,1.73
2019-03-13T09:24:23.138Z,1.76
2019-03-13T09:26:09.737Z,1.75
2019-03-13T09:28:02.550Z,1.78
2019-03-13T09:30:00.367Z,1.82
2019-03-13T09:31:58.778Z,1.78
2019-03-13T09:33:48.100Z,1.78
2019-03-13T09:35:47.115Z,1.73
2019-03-13T09:37:47.212Z,1.74
2019-03-13T09:39:31.527Z,1.71
2019-03-13T09:41:23.209Z,1.69
2019-03-13T09:43:16.652Z,1.72
2019-03-13T09:45:07.596Z,1.70
2019-03-13T09:47:14.721Z,1.69
2019-03-13T09:49:03.313Z,1.72
2019-03-13T09:51:08.342Z,1.74
2019-03-13T09:53:11.004Z,1.85
2019-03-13T09:55:13.095Z,1.95
2019-03-13T09:57:13.273Z,1.99
2019-03-13T09:59:07.715Z,2.01
2019-03-13T10:00:54.985Z,2.06
2019-03-13T10:02:49.456Z,2.00
2019-03-13T10:04:44.635Z,1.97
2019-03-13T10:06:27.132Z,1.91
2019-03-13T10:08:24.866Z,1.86
2019-03-13T10:10:18.905Z,1.86
2019-03-13T10:12:12.075Z,1.78
2019-03-13T10:14:21.569Z,1.83
2019-03-13T10:16:15.891Z,1.83
2019-03-13T10:18:12.605Z,1.93
2019-03-13T10:20:06.432Z,1.97
2019-03-13T10:22:00.536Z,2.07
2019-03-13T10:24:07.443Z,2.07
2019-03-13T10:25:59.626Z,2.10
2019-03-13T10:27:48.930Z,2.19
2019-03-13T10:29:46.017Z,2.27
2019-03-13T10:31:46.574Z,2.34
2019-03-13T10:33:40.208Z,2.35
2019-03-13T10:35:43.276Z,2.47
2019-03-13T10:37:36.205Z,2.53
2019-03-13T10:39:33.743Z,2.60
2019-03-13T10:41:36.212Z,2.62
2019-03-13T10:45:46.293Z,2.72
2019-03-13T10:47:43.802Z,2.71
2019-03-13T10:49:35.753Z,2.77
2019-03-13T10:51:31.343Z,2.65
2019-03-13T10:53:34.317Z,2.74
2019-03-13T10:55:30.818Z,2.73
2019-03-13T10:57:17.126Z,2.76
2019-03-13T10:59:12.493Z,2.72
2019-03-13T11:01:16.962Z,2.71
2019-03-13T11:03:16.392Z,2.71
2019-03-13T11:05:21.250Z,2.71
2019-03-13T11:07:35.209Z,2.74
2019-03-13T11:09:26.041Z,2.72
2019-03-13T11:11:29.480Z,2.72
2019-03-13T11:13:21.013Z,2.77
2019-03-13T11:15:17.127Z,2.77
2019-03-13T11:17:02.750Z,2.78
2019-03-13T11:19:04.936Z,2.73
2019-03-13T11:21:01.761Z,2.74
2019-03-13T11:23:05.045Z,2.80
2019-03-13T11:24:57.056Z,2.79
2019-03-13T11:27:03.486Z,2.83
2019-03-13T11:29:08.053Z,2.75
2019-03-13T11:31:06.490Z,2.68
2019-03-13T11:33:07.545Z,2.68
2019-03-13T11:35:17.756Z,2.63
2019-03-13T11:37:14.347Z,2.59
2019-03-13T11:39:09.859Z,2.49
2019-03-13T11:41:03.212Z,2.55
2019-03-13T11:42:58.327Z,2.49
2019-03-13T11:45:07.556Z,2.39
2019-03-13T11:47:11.772Z,2.28
2019-03-13T11:49:17.258Z,2.28
2019-03-13T11:51:35.815Z,2.23
2019-03-13T11:53:21.206Z,2.26
2019-03-13T11:55:24.623Z,2.30
2019-03-13T11:57:21.922Z,2.32
2019-03-13T11:59:19.838Z,2.35
2019-03-13T12:01:17.372Z,2.37
2019-03-13T12:03:23.265Z,2.40
2019-03-13T12:05:20.960Z,2.46
2019-03-13T12:07:18.127Z,2.41
2019-03-13T12:09:30.324Z,2.38
2019-03-13T12:11:28.212Z,2.37
2019-03-13T12:14:01.901Z,2.46
2019-03-13T12:15:57.771Z,2.43
2019-03-13T12:17:52.864Z,2.48
2019-03-13T12:19:45.733Z,2.47
2019-03-13T12:21:43.934Z,2.45
2019-03-13T12:23:34.265Z,2.51
2019-03-13T12:25:44.282Z,2.51
2019-03-13T12:27:47.642Z,2.50
2019-03-13T12:29:50.946Z,2.51
2019-03-13T12:31:51.129Z,2.52
2019-03-13T12:33:36.919Z,2.55
2019-03-13T12:35:29.669Z,2.58
2019-03-13T12:37:22.725Z,2.56
2019-03-13T12:39:12.589Z,2.52
2019-03-13T12:41:08.467Z,2.56
2019-03-13T12:42:58.237Z,2.60
2019-03-13T12:44:39.536Z,2.63
2019-03-13T12:46:34.844Z,2.64
2019-03-13T12:48:33.010Z,2.69
2019-03-13T12:50:30.191Z,2.72
2019-03-13T12:52:24.419Z,2.76
2019-03-13T12:54:24.720Z,2.79
2019-03-13T12:56:35.295Z,2.70
2019-03-13T12:58:47.763Z,2.79
2019-03-13T13:00:39.866Z,2.74
2019-03-13T13:02:40.438Z,2.76
2019-03-13T13:04:50.129Z,2.76
2019-03-13T13:06:44.267Z,2.78
2019-03-13T13:08:44.325Z,2.86
2019-03-13T13:10:59.686Z,2.84
2019-03-13T13:13:15.189Z,2.83
2019-03-13T13:15:08.592Z,2.86
2019-03-13T13:19:02.785Z,2.79
2019-03-13T13:20:38.641Z,2.78
2019-03-13T13:22:23.907Z,2.75
2019-03-13T13:23:58.630Z,2.79
2019-03-13T13:25:41.334Z,2.81
2019-03-13T13:27:18.350Z,2.79
2019-03-13T13:28:56.895Z,2.84
2019-03-13T13:30:33.463Z,2.85
2019-03-13T13:32:09.008Z,2.84
2019-03-13T13:33:49.023Z,2.85
2019-03-13T13:35:34.986Z,2.86
2019-03-13T13:37:24.403Z,2.85
2019-03-13T13:39:13.002Z,2.87
2019-03-13T13:40:52.747Z,2.84
2019-03-13T13:42:34.898Z,2.85
2019-03-13T13:44:11.036Z,2.92
2019-03-13T13:46:10.514Z,2.86
2019-03-13T13:47:48.777Z,2.83
2019-03-13T13:49:59.122Z,2.87
2019-03-13T13:51:21.221Z,2.88
2019-03-13T13:53:00.005Z,2.93
2019-03-13T13:54:39.521Z,2.93
2019-03-13T13:56:21.046Z,2.87
2019-03-13T13:58:07.244Z,2.90
2019-03-13T13:59:49.385Z,2.86
2019-03-13T14:01:29.711Z,2.79
2019-03-13T14:03:11.165Z,2.74
2019-03-13T14:04:50.621Z,2.75
2019-03-13T14:06:36.877Z,2.72
2019-03-13T14:08:12.969Z,2.72
2019-03-13T14:09:51.820Z,2.72
2019-03-13T14:11:30.796Z,2.74
2019-03-13T14:13:15.345Z,2.73
2019-03-13T14:14:55.602Z,2.78
2019-03-13T14:16:33.450Z,2.79
2019-03-13T14:18:09.884Z,2.80
2019-03-13T14:19:54.166Z,2.83
2019-03-13T14:21:31.417Z,2.91
2019-03-13T14:23:07.402Z,2.97
2019-03-13T14:24:48.266Z,2.96
2019-03-13T14:26:24.734Z,3.02
2019-03-13T14:28:05.398Z,3.06
2019-03-13T14:29:40.812Z,3.04
2019-03-13T14:31:17.759Z,3.06
2019-03-13T14:33:03.826Z,3.08
2019-03-13T14:34:45.136Z,3.08
2019-03-13T14:36:21.929Z,3.11
2019-03-13T14:37:59.233Z,3.13
2019-03-13T14:39:43.592Z,3.16
2019-03-13T14:41:26.427Z,3.22
2019-03-13T14:43:12.907Z,3.24
2019-03-13T14:44:53.175Z,3.30
2019-03-13T14:46:33.584Z,3.28
2019-03-13T14:48:11.297Z,3.29
2019-03-13T14:49:51.728Z,3.33
2019-03-13T14:51:32.638Z,3.32
2019-03-13T14:53:14.837Z,3.36
2019-03-13T14:55:00.945Z,3.32
2019-03-13T14:56:39.739Z,3.34
2019-03-13T14:58:34.234Z,3.35
2019-03-13T15:00:23.559Z,3.47
2019-03-13T15:01:58.828Z,3.51
2019-03-13T15:03:37.531Z,3.52
2019-03-13T15:05:12.828Z,3.47
2019-03-13T15:06:49.207Z,3.54
2019-03-13T15:08:28.725Z,3.47
2019-03-13T15:10:04.399Z,3.45
2019-03-13T15:11:42.437Z,3.45
2019-03-13T15:13:28.208Z,3.45
2019-03-13T15:15:20.592Z,3.38
2019-03-13T15:16:56.221Z,3.40
2019-03-13T15:18:38.647Z,3.31
2019-03-13T15:20:17.913Z,3.32
2019-03-13T15:21:59.501Z,3.29
2019-03-13T15:23:46.786Z,3.32
2019-03-13T15:25:26.095Z,3.34
2019-03-13T15:27:03.096Z,3.29
2019-03-13T15:28:38.833Z,3.27
2019-03-13T15:30:26.241Z,3.27
2019-03-13T15:32:05.581Z,3.26
2019-03-13T15:33:44.711Z,3.20
2019-03-13T15:35:21.341Z,3.13
2019-03-13T15:36:58.384Z,3.00
2019-03-13T15:38:35.415Z,2.73
2019-03-13T15:40:32.086Z,2.36
2019-03-13T15:42:14.174Z,2.18
2019-03-13T15:43:52.903Z,2.10
2019-03-13T15:45:33.734Z,2.11
2019-03-13T15:47:17.375Z,2.05
2019-03-13T15:48:54.112Z,2.03
2019-03-13T15:50:31.147Z,1.98
2019-03-13T15:52:11.281Z,1.94
2019-03-13T15:53:46.695Z,1.93
2019-03-13T15:55:23.308Z,1.87
2019-03-13T15:57:04.740Z,1.80
2019-03-13T15:58:42.007Z,1.76
2019-03-13T16:00:29.291Z,1.75
2019-03-13T16:02:08.724Z,1.77
2019-03-13T16:03:44.820Z,1.80
2019-03-13T16:05:24.610Z,1.84
2019-03-13T16:07:03.471Z,1.87
2019-03-13T16:08:42.117Z,1.86
2019-03-13T16:10:25.475Z,1.78
2019-03-13T16:12:05.559Z,1.76
2019-03-13T16:13:44.994Z,1.74
2019-03-13T16:15:22.680Z,1.75
2019-03-13T16:17:03.492Z,1.80
2019-03-13T16:18:49.858Z,1.85
2019-03-13T16:20:28.231Z,1.87
2019-03-13T16:22:16.631Z,1.97
2019-03-13T16:23:52.383Z,2.01
2019-03-13T16:25:31.667Z,2.07
2019-03-13T16:27:07.057Z,2.14
2019-03-13T16:28:44.101Z,2.21
2019-03-13T16:30:27.369Z,2.24
2019-03-13T16:32:05.995Z,2.27
2019-03-13T16:33:42.179Z,2.28
2019-03-13T16:35:19.717Z,2.28
2019-03-13T16:36:56.844Z,2.29
2019-03-13T16:38:40.272Z,2.26
2019-03-13T16:40:31.700Z,2.21
2019-03-13T16:42:17.148Z,2.16
2019-03-13T16:43:58.566Z,2.11
2019-03-13T16:45:35.489Z,2.07
2019-03-13T16:47:10.738Z,2.09
2019-03-13T16:48:51.188Z,2.12
2019-03-13T16:50:30.122Z,2.13
2019-03-13T16:52:12.845Z,2.13
2019-03-13T16:53:51.627Z,2.05
2019-03-13T16:55:31.224Z,2.02
2019-03-13T16:57:07.694Z,2.04
2019-03-13T16:59:07.899Z,2.01
2019-03-13T17:00:50.469Z,2.03
2019-03-13T17:02:28.240Z,2.03
2019-03-13T17:04:07.709Z,2.05
2019-03-13T17:05:44.484Z,2.05
2019-03-13T17:07:26.321Z,2.04
2019-03-13T17:09:02.242Z,2.03
2019-03-13T17:10:44.006Z,2.02
2019-03-13T17:12:23.437Z,2.02
2019-03-13T17:14:01.108Z,2.02
2019-03-13T17:15:42.576Z,2.03
2019-03-13T17:17:32.242Z,2.01
2019-03-13T17:19:18.021Z,1.99
2019-03-13T17:21:20.128Z,1.97
2019-03-13T17:23:06.357Z,1.96
2019-03-13T17:25:02.403Z,1.89
2019-03-13T17:26:54.541Z,1.87
2019-03-13T17:28:39.621Z,1.86
2019-03-13T17:32:23.065Z,1.83
2019-03-13T17:34:05.784Z,1.86
2019-03-13T17:35:46.939Z,1.85
2019-03-13T17:37:30.154Z,1.79
2019-03-13T17:39:08.186Z,1.75
2019-03-13T17:40:43.778Z,1.71
2019-03-13T17:42:34.791Z,1.67
2019-03-13T17:44:13.035Z,1.61
2019-03-13T17:46:12.858Z,1.53
2019-03-13T17:47:51.501Z,1.52
2019-03-13T17:49:31.919Z,1.48
2019-03-13T17:51:20.640Z,1.44
2019-03-13T17:53:05.377Z,1.46
2019-03-13T17:54:49.443Z,1.45
2019-03-13T17:56:30.698Z,1.45
2019-03-13T17:58:10.373Z,1.46
2019-03-13T18:00:00.616Z,1.42
2019-03-13T18:01:46.061Z,1.41
2019-03-13T18:03:23.635Z,1.41
2019-03-13T18:05:04.016Z,1.40
2019-03-13T18:06:42.268Z,1.37
2019-03-13T18:08:19.343Z,1.32
2019-03-13T18:09:57.431Z,1.33
2019-03-13T18:11:35.792Z,1.32
2019-03-13T18:13:13.285Z,1.34
2019-03-13T18:14:56.128Z,1.37
2019-03-13T18:16:31.704Z,1.40
2019-03-13T18:18:14.912Z,1.44
2019-03-13T18:19:52.352Z,1.46
2019-03-13T18:21:31.489Z,1.49
2019-03-13T18:23:11.377Z,1.44
2019-03-13T18:24:52.446Z,1.43
2019-03-13T18:26:28.222Z,1.49
2019-03-13T18:28:08.725Z,1.50
2019-03-13T18:30:02.909Z,1.49
2019-03-13T18:32:01.277Z,1.50
2019-03-13T18:33:40.815Z,1.60
2019-03-13T18:35:16.219Z,1.69
2019-03-13T18:36:57.272Z,1.76
2019-03-13T18:38:38.579Z,1.84
2019-03-13T18:40:17.299Z,1.87
2019-03-13T18:41:56.040Z,1.92
2019-03-13T18:43:52.686Z,2.00
2019-03-13T18:45:31.675Z,2.11
2019-03-13T18:47:44.978Z,2.16
2019-03-13T18:49:22.499Z,2.22
2019-03-13T18:51:09.220Z,2.30
2019-03-13T18:52:47.388Z,2.33
2019-03-13T18:54:22.930Z,2.35
2019-03-13T18:56:02.576Z,2.38
2019-03-13T18:57:37.978Z,2.41
2019-03-13T18:59:29.750Z,2.45
2019-03-13T19:01:08.437Z,2.47
2019-03-13T19:02:43.720Z,2.48
2019-03-13T19:04:21.290Z,2.48
2019-03-13T19:05:59.262Z,2.50
2019-03-13T19:07:43.748Z,2.49
2019-03-13T19:09:19.300Z,2.49
2019-03-13T19:10:57.955Z,2.53
2019-03-13T19:12:33.510Z,2.53
2019-03-13T19:14:08.967Z,2.56
2019-03-13T19:15:55.748Z,2.55
2019-03-13T19:17:51.341Z,2.60
2019-03-13T19:19:30.102Z,2.61
2019-03-13T19:21:08.008Z,2.63
2019-03-13T19:22:55.273Z,2.66
2019-03-13T19:24:41.587Z,2.67
2019-03-13T19:26:19.697Z,2.68
2019-03-13T19:28:10.477Z,2.70
2019-03-13T19:30:07.344Z,2.74
2019-03-13T19:32:09.800Z,2.79
2019-03-13T19:33:47.364Z,2.82
2019-03-13T19:35:25.784Z,2.84
2019-03-13T19:37:09.210Z,2.85
2019-03-13T19:38:53.099Z,2.86
2019-03-13T19:40:38.004Z,2.85
2019-03-13T19:42:18.350Z,2.88
2019-03-13T19:43:54.099Z,2.88
2019-03-13T19:45:36.143Z,2.88
2019-03-13T19:47:12.306Z,2.90
2019-03-13T19:48:50.453Z,2.88
2019-03-13T19:50:28.761Z,2.87
2019-03-13T19:52:09.701Z,2.89
2019-03-13T19:53:45.524Z,2.89
2019-03-13T19:55:20.952Z,2.89
2019-03-13T19:56:56.797Z,2.88
2019-03-13T19:58:37.188Z,2.91
2019-03-13T20:00:21.746Z,2.91
2019-03-13T20:02:01.401Z,2.92
2019-03-13T20:03:38.510Z,2.94
2019-03-13T20:05:15.396Z,2.97
2019-03-13T20:06:50.652Z,2.99
2019-03-13T20:08:29.354Z,3.00
2019-03-13T20:10:04.916Z,3.01
2019-03-13T20:11:45.275Z,3.01
2019-03-13T20:13:30.963Z,3.00
2019-03-13T20:15:12.120Z,3.03
2019-03-13T20:16:54.602Z,3.05
2019-03-13T20:18:35.584Z,3.07
2019-03-13T20:20:14.918Z,3.07
2019-03-13T20:21:55.668Z,3.08
2019-03-13T20:23:34.225Z,3.10
2019-03-13T20:25:10.873Z,3.09
2019-03-13T20:26:46.875Z,3.11
2019-03-13T20:28:41.649Z,3.13
2019-03-13T20:30:23.665Z,3.13
2019-03-13T20:32:04.175Z,3.12
2019-03-13T20:33:39.984Z,3.12
2019-03-13T20:35:18.338Z,3.13
2019-03-13T20:36:53.757Z,3.13
2019-03-13T20:38:30.393Z,3.11
2019-03-13T20:40:11.795Z,3.11
2019-03-13T20:41:47.772Z,3.12
2019-03-13T20:43:23.582Z,3.12
2019-03-13T20:44:59.182Z,3.11
2019-03-13T20:46:36.172Z,3.10
2019-03-13T20:48:14.362Z,3.09
2019-03-13T20:49:49.857Z,3.07
2019-03-13T20:51:32.586Z,3.06
2019-03-13T20:53:08.075Z,3.07
2019-03-13T20:54:43.617Z,3.06
2019-03-13T20:56:19.813Z,3.06
2019-03-13T20:57:55.391Z,3.05
2019-03-13T20:59:32.870Z,3.01
2019-03-13T21:01:08.389Z,3.00
2019-03-13T21:02:45.907Z,2.98
2019-03-13T21:04:23.343Z,2.99
2019-03-13T21:06:00.791Z,2.99
2019-03-13T21:07:43.678Z,2.98
2019-03-13T21:09:26.522Z,2.98
2019-03-13T21:11:01.774Z,2.99
2019-03-13T21:12:37.403Z,2.97
2019-03-13T21:14:12.877Z,2.97
2019-03-13T21:15:48.271Z,2.96
2019-03-13T21:17:25.086Z,2.95
2019-03-13T21:19:03.246Z,2.97
2019-03-13T21:20:41.393Z,2.99
2019-03-13T21:22:20.950Z,2.98
2019-03-13T21:23:57.973Z,2.99
2019-03-13T21:25:37.907Z,3.00
2019-03-13T21:27:15.989Z,2.99
2019-03-13T21:28:53.034Z,2.97
2019-03-13T21:30:28.544Z,2.97
2019-03-13T21:32:05.231Z,2.96
2019-03-13T21:33:40.860Z,2.97
2019-03-13T21:35:18.440Z,2.98
2019-03-13T21:36:57.089Z,2.98
2019-03-13T21:38:33.245Z,3.00
2019-03-13T21:40:09.858Z,3.02
2019-03-13T21:41:45.324Z,3.03
2019-03-13T21:43:20.605Z,3.02
2019-03-13T21:44:58.509Z,3.03
2019-03-13T21:46:34.425Z,3.03
2019-03-13T21:48:10.257Z,3.04
2019-03-13T21:49:48.238Z,3.04
2019-03-13T21:51:28.715Z,3.03
2019-03-13T21:53:09.198Z,3.05
2019-03-13T21:54:52.049Z,3.03
2019-03-13T21:56:35.910Z,3.03
2019-03-13T21:58:12.856Z,3.02
2019-03-13T21:59:49.531Z,3.01
2019-03-13T22:01:26.491Z,3.01
2019-03-13T22:03:03.590Z,3.01
2019-03-13T22:04:39.695Z,3.03
2019-03-13T22:06:27.725Z,3.03
2019-03-13T22:07:58.376Z,3.03
2019-03-13T22:09:33.976Z,3.04
2019-03-13T22:11:15.630Z,3.03
2019-03-13T22:12:52.422Z,3.03
2019-03-13T22:14:27.869Z,3.04
2019-03-13T22:16:03.117Z,3.04
2019-03-13T22:17:38.968Z,3.05
2019-03-13T22:19:16.996Z,3.03
2019-03-13T22:20:55.239Z,3.03
2019-03-13T22:22:31.289Z,3.04
2019-03-13T22:24:09.536Z,3.03
2019-03-13T22:25:48.165Z,3.01
2019-03-13T22:27:24.630Z,3.01
2019-03-13T22:28:59.717Z,3.01
2019-03-13T22:30:35.323Z,3.02
2019-03-13T22:32:10.577Z,3.03
2019-03-13T22:33:51.473Z,3.02
2019-03-13T22:35:27.969Z,3.01
2019-03-13T22:37:05.912Z,3.04
2019-03-13T22:38:41.018Z,3.02
2019-03-13T22:40:20.041Z,3.01
2019-03-13T22:41:56.201Z,2.99
2019-03-13T22:43:31.425Z,3.00
2019-03-13T22:45:07.563Z,2.99
2019-03-13T22:46:46.728Z,2.99
2019-03-13T22:48:22.347Z,2.98
2019-03-13T22:49:58.020Z,3.00
2019-03-13T22:51:35.834Z,2.99
2019-03-13T22:53:10.449Z,3.00
2019-03-13T22:54:46.318Z,3.00
2019-03-13T22:56:21.539Z,3.00
2019-03-13T22:57:57.023Z,3.00
2019-03-13T22:59:36.917Z,2.99
2019-03-13T23:01:15.504Z,2.97
2019-03-13T23:02:51.044Z,2.98
2019-03-13T23:04:26.394Z,2.96
2019-03-13T23:06:07.887Z,2.94